sensor_id;sensor_type;location;lat;lon;timestamp;P1;durP1;ratioP1;P2;durP2;ratioP2
40433;SDS011;26146;51.114;5.654;2023-04-29T00:00:22;43.57;;;19.37;;
40433;SDS011;26146;51.114;5.654;2023-04-29T00:04:23;46.80;;;20.77;;
40433;SDS011;26146;51.114;5.654;2023-04-29T00:08:25;44.00;;;20.27;;
40433;SDS011;26146;51.114;5.654;2023-04-29T00:12:26;42.23;;;19.10;;
40433;SDS011;26146;51.114;5.654;2023-04-29T00:16:29;41.60;;;19.50;;
40433;SDS011;26146;51.114;5.654;2023-04-29T00:20:30;42.83;;;19.97;;
40433;SDS011;26146;51.114;5.654;2023-04-29T00:24:32;46.57;;;21.20;;
40433;SDS011;26146;51.114;5.654;2023-04-29T00:28:33;42.47;;;19.87;;
40433;SDS011;26146;51.114;5.654;2023-04-29T00:32:34;48.33;;;21.87;;
40433;SDS011;26146;51.114;5.654;2023-04-29T00:36:35;47.40;;;21.77;;
40433;SDS011;26146;51.114;5.654;2023-04-29T00:40:36;47.43;;;22.20;;
40433;SDS011;26146;51.114;5.654;2023-04-29T00:44:37;48.67;;;22.60;;
40433;SDS011;26146;51.114;5.654;2023-04-29T00:48:38;53.80;;;23.67;;
40433;SDS011;26146;51.114;5.654;2023-04-29T00:52:40;48.03;;;22.93;;
40433;SDS011;26146;51.114;5.654;2023-04-29T00:56:44;54.40;;;23.77;;
40433;SDS011;26146;51.114;5.654;2023-04-29T01:00:46;49.50;;;22.57;;
40433;SDS011;26146;51.114;5.654;2023-04-29T01:04:47;53.97;;;22.93;;
40433;SDS011;26146;51.114;5.654;2023-04-29T01:08:59;47.40;;;21.87;;
40433;SDS011;26146;51.114;5.654;2023-04-29T01:17:30;50.37;;;22.17;;
40433;SDS011;26146;51.114;5.654;2023-04-29T01:21:47;47.97;;;22.07;;
40433;SDS011;26146;51.114;5.654;2023-04-29T01:25:48;50.63;;;22.38;;
40433;SDS011;26146;51.114;5.654;2023-04-29T01:29:55;51.90;;;21.47;;
40433;SDS011;26146;51.114;5.654;2023-04-29T01:34:33;50.40;;;21.97;;
40433;SDS011;26146;51.114;5.654;2023-04-29T01:42:45;56.87;;;24.70;;
40433;SDS011;26146;51.114;5.654;2023-04-29T01:46:51;59.17;;;24.17;;
40433;SDS011;26146;51.114;5.654;2023-04-29T01:50:56;59.00;;;25.30;;
40433;SDS011;26146;51.114;5.654;2023-04-29T01:54:57;66.60;;;26.27;;
40433;SDS011;26146;51.114;5.654;2023-04-29T01:58:58;71.50;;;27.10;;
40433;SDS011;26146;51.114;5.654;2023-04-29T02:02:59;63.07;;;27.13;;
40433;SDS011;26146;51.114;5.654;2023-04-29T02:07:00;65.67;;;27.43;;
40433;SDS011;26146;51.114;5.654;2023-04-29T02:11:01;75.80;;;29.10;;
40433;SDS011;26146;51.114;5.654;2023-04-29T02:15:02;74.20;;;29.63;;
40433;SDS011;26146;51.114;5.654;2023-04-29T02:19:03;70.80;;;30.30;;
40433;SDS011;26146;51.114;5.654;2023-04-29T02:23:04;72.87;;;31.30;;
40433;SDS011;26146;51.114;5.654;2023-04-29T02:27:05;76.87;;;33.30;;
40433;SDS011;26146;51.114;5.654;2023-04-29T02:31:06;72.03;;;32.30;;
40433;SDS011;26146;51.114;5.654;2023-04-29T02:35:08;69.60;;;30.27;;
40433;SDS011;26146;51.114;5.654;2023-04-29T02:39:09;66.80;;;28.97;;
40433;SDS011;26146;51.114;5.654;2023-04-29T02:43:10;63.03;;;27.37;;
40433;SDS011;26146;51.114;5.654;2023-04-29T02:47:12;54.77;;;25.43;;
40433;SDS011;26146;51.114;5.654;2023-04-29T02:51:13;55.83;;;25.43;;
40433;SDS011;26146;51.114;5.654;2023-04-29T02:55:14;55.83;;;25.53;;
40433;SDS011;26146;51.114;5.654;2023-04-29T02:59:16;54.80;;;24.47;;
40433;SDS011;26146;51.114;5.654;2023-04-29T03:03:17;55.33;;;25.37;;
40433;SDS011;26146;51.114;5.654;2023-04-29T03:07:18;53.63;;;23.73;;
40433;SDS011;26146;51.114;5.654;2023-04-29T03:11:19;56.87;;;24.80;;
40433;SDS011;26146;51.114;5.654;2023-04-29T03:15:20;52.40;;;22.57;;
40433;SDS011;26146;51.114;5.654;2023-04-29T03:19:24;51.43;;;23.37;;
40433;SDS011;26146;51.114;5.654;2023-04-29T03:23:25;44.53;;;20.37;;
40433;SDS011;26146;51.114;5.654;2023-04-29T03:27:26;39.93;;;19.13;;
40433;SDS011;26146;51.114;5.654;2023-04-29T03:31:27;39.50;;;18.97;;
40433;SDS011;26146;51.114;5.654;2023-04-29T03:35:28;41.20;;;18.47;;
40433;SDS011;26146;51.114;5.654;2023-04-29T03:39:29;39.30;;;18.37;;
40433;SDS011;26146;51.114;5.654;2023-04-29T03:43:31;40.50;;;19.07;;
40433;SDS011;26146;51.114;5.654;2023-04-29T03:47:33;45.60;;;19.90;;
40433;SDS011;26146;51.114;5.654;2023-04-29T03:51:34;48.30;;;19.97;;
40433;SDS011;26146;51.114;5.654;2023-04-29T03:55:35;45.67;;;20.67;;
40433;SDS011;26146;51.114;5.654;2023-04-29T03:59:36;49.33;;;21.03;;
40433;SDS011;26146;51.114;5.654;2023-04-29T04:03:37;50.13;;;21.33;;
40433;SDS011;26146;51.114;5.654;2023-04-29T04:07:38;49.37;;;20.63;;
40433;SDS011;26146;51.114;5.654;2023-04-29T04:11:39;52.03;;;22.00;;
40433;SDS011;26146;51.114;5.654;2023-04-29T04:15:41;50.27;;;21.23;;
40433;SDS011;26146;51.114;5.654;2023-04-29T04:19:42;48.53;;;20.97;;
40433;SDS011;26146;51.114;5.654;2023-04-29T04:23:43;49.30;;;21.67;;
40433;SDS011;26146;51.114;5.654;2023-04-29T04:27:44;51.53;;;20.87;;
40433;SDS011;26146;51.114;5.654;2023-04-29T04:31:45;51.63;;;21.57;;
40433;SDS011;26146;51.114;5.654;2023-04-29T04:35:46;51.70;;;21.40;;
40433;SDS011;26146;51.114;5.654;2023-04-29T04:39:47;55.90;;;22.37;;
40433;SDS011;26146;51.114;5.654;2023-04-29T04:43:48;54.03;;;22.23;;
40433;SDS011;26146;51.114;5.654;2023-04-29T04:47:49;54.27;;;23.60;;
40433;SDS011;26146;51.114;5.654;2023-04-29T04:51:50;52.10;;;22.33;;
40433;SDS011;26146;51.114;5.654;2023-04-29T04:55:51;53.33;;;22.47;;
40433;SDS011;26146;51.114;5.654;2023-04-29T04:59:52;51.90;;;22.03;;
40433;SDS011;26146;51.114;5.654;2023-04-29T05:03:53;52.23;;;22.43;;
40433;SDS011;26146;51.114;5.654;2023-04-29T05:07:54;47.37;;;21.37;;
40433;SDS011;26146;51.114;5.654;2023-04-29T05:11:55;53.30;;;22.20;;
40433;SDS011;26146;51.114;5.654;2023-04-29T05:16:00;45.23;;;19.80;;
40433;SDS011;26146;51.114;5.654;2023-04-29T05:20:03;46.00;;;19.90;;
40433;SDS011;26146;51.114;5.654;2023-04-29T05:24:04;42.40;;;19.40;;
40433;SDS011;26146;51.114;5.654;2023-04-29T05:28:06;41.27;;;19.37;;
40433;SDS011;26146;51.114;5.654;2023-04-29T05:32:07;40.30;;;18.90;;
40433;SDS011;26146;51.114;5.654;2023-04-29T05:36:09;42.50;;;19.17;;
40433;SDS011;26146;51.114;5.654;2023-04-29T05:40:10;40.50;;;17.80;;
40433;SDS011;26146;51.114;5.654;2023-04-29T05:44:11;44.97;;;18.30;;
40433;SDS011;26146;51.114;5.654;2023-04-29T05:48:12;43.00;;;17.97;;
40433;SDS011;26146;51.114;5.654;2023-04-29T05:52:13;41.80;;;18.20;;
40433;SDS011;26146;51.114;5.654;2023-04-29T05:56:14;41.90;;;17.90;;
40433;SDS011;26146;51.114;5.654;2023-04-29T06:00:16;38.43;;;17.67;;
40433;SDS011;26146;51.114;5.654;2023-04-29T06:04:16;41.37;;;16.80;;
40433;SDS011;26146;51.114;5.654;2023-04-29T06:08:18;37.10;;;16.67;;
40433;SDS011;26146;51.114;5.654;2023-04-29T06:12:19;40.73;;;17.10;;
40433;SDS011;26146;51.114;5.654;2023-04-29T06:16:20;37.83;;;16.27;;
40433;SDS011;26146;51.114;5.654;2023-04-29T06:20:21;39.43;;;17.47;;
40433;SDS011;26146;51.114;5.654;2023-04-29T06:24:22;38.23;;;17.33;;
40433;SDS011;26146;51.114;5.654;2023-04-29T06:28:23;37.67;;;16.77;;
40433;SDS011;26146;51.114;5.654;2023-04-29T06:32:24;40.37;;;17.53;;
40433;SDS011;26146;51.114;5.654;2023-04-29T06:36:25;37.03;;;17.00;;
40433;SDS011;26146;51.114;5.654;2023-04-29T06:40:27;37.40;;;17.27;;
40433;SDS011;26146;51.114;5.654;2023-04-29T06:44:28;37.07;;;17.43;;
40433;SDS011;26146;51.114;5.654;2023-04-29T06:48:29;38.80;;;17.63;;
40433;SDS011;26146;51.114;5.654;2023-04-29T06:52:30;38.87;;;17.50;;
40433;SDS011;26146;51.114;5.654;2023-04-29T06:56:32;39.57;;;18.40;;
40433;SDS011;26146;51.114;5.654;2023-04-29T07:00:33;36.57;;;16.97;;
40433;SDS011;26146;51.114;5.654;2023-04-29T07:04:34;35.40;;;16.60;;
40433;SDS011;26146;51.114;5.654;2023-04-29T07:08:36;36.33;;;16.97;;
40433;SDS011;26146;51.114;5.654;2023-04-29T07:12:37;39.73;;;17.87;;
40433;SDS011;26146;51.114;5.654;2023-04-29T07:16:39;37.40;;;16.73;;
40433;SDS011;26146;51.114;5.654;2023-04-29T07:20:40;39.17;;;17.23;;
40433;SDS011;26146;51.114;5.654;2023-04-29T07:24:41;33.47;;;16.57;;
40433;SDS011;26146;51.114;5.654;2023-04-29T07:28:43;34.20;;;17.20;;
40433;SDS011;26146;51.114;5.654;2023-04-29T07:32:44;34.90;;;16.60;;
40433;SDS011;26146;51.114;5.654;2023-04-29T07:36:46;35.80;;;16.23;;
40433;SDS011;26146;51.114;5.654;2023-04-29T07:40:47;31.93;;;15.73;;
40433;SDS011;26146;51.114;5.654;2023-04-29T07:44:48;34.40;;;16.53;;
40433;SDS011;26146;51.114;5.654;2023-04-29T07:48:49;36.00;;;17.10;;
40433;SDS011;26146;51.114;5.654;2023-04-29T07:52:50;35.90;;;16.17;;
40433;SDS011;26146;51.114;5.654;2023-04-29T07:56:51;36.27;;;17.70;;
40433;SDS011;26146;51.114;5.654;2023-04-29T08:00:52;38.33;;;18.73;;
40433;SDS011;26146;51.114;5.654;2023-04-29T08:04:53;37.30;;;17.47;;
40433;SDS011;26146;51.114;5.654;2023-04-29T08:08:55;36.10;;;17.70;;
40433;SDS011;26146;51.114;5.654;2023-04-29T08:12:56;34.37;;;16.33;;
40433;SDS011;26146;51.114;5.654;2023-04-29T08:16:57;32.97;;;16.60;;
40433;SDS011;26146;51.114;5.654;2023-04-29T08:20:58;31.63;;;16.97;;
40433;SDS011;26146;51.114;5.654;2023-04-29T08:24:59;31.70;;;16.47;;
40433;SDS011;26146;51.114;5.654;2023-04-29T08:29:02;34.47;;;16.47;;
40433;SDS011;26146;51.114;5.654;2023-04-29T08:33:03;32.37;;;15.27;;
40433;SDS011;26146;51.114;5.654;2023-04-29T08:37:04;31.30;;;15.13;;
40433;SDS011;26146;51.114;5.654;2023-04-29T08:41:08;30.43;;;15.23;;
40433;SDS011;26146;51.114;5.654;2023-04-29T08:45:09;28.97;;;14.80;;
40433;SDS011;26146;51.114;5.654;2023-04-29T08:49:12;30.73;;;14.60;;
40433;SDS011;26146;51.114;5.654;2023-04-29T08:53:13;28.97;;;14.00;;
40433;SDS011;26146;51.114;5.654;2023-04-29T08:57:15;28.85;;;13.68;;
40433;SDS011;26146;51.114;5.654;2023-04-29T09:01:16;25.95;;;12.95;;
40433;SDS011;26146;51.114;5.654;2023-04-29T09:05:18;23.90;;;12.20;;
40433;SDS011;26146;51.114;5.654;2023-04-29T09:09:20;24.45;;;12.93;;
40433;SDS011;26146;51.114;5.654;2023-04-29T09:13:24;20.95;;;11.88;;
40433;SDS011;26146;51.114;5.654;2023-04-29T09:17:39;23.75;;;11.65;;
40433;SDS011;26146;51.114;5.654;2023-04-29T09:21:41;21.70;;;12.27;;
40433;SDS011;26146;51.114;5.654;2023-04-29T09:25:55;22.67;;;11.88;;
40433;SDS011;26146;51.114;5.654;2023-04-29T09:30:00;24.58;;;12.57;;
40433;SDS011;26146;51.114;5.654;2023-04-29T09:34:01;25.10;;;12.80;;
40433;SDS011;26146;51.114;5.654;2023-04-29T09:38:09;24.75;;;12.18;;
40433;SDS011;26146;51.114;5.654;2023-04-29T09:42:11;25.75;;;11.88;;
40433;SDS011;26146;51.114;5.654;2023-04-29T09:46:13;22.05;;;12.05;;
40433;SDS011;26146;51.114;5.654;2023-04-29T09:50:15;23.85;;;12.07;;
40433;SDS011;26146;51.114;5.654;2023-04-29T09:54:20;23.33;;;12.52;;
40433;SDS011;26146;51.114;5.654;2023-04-29T09:58:28;23.15;;;12.73;;
40433;SDS011;26146;51.114;5.654;2023-04-29T10:02:33;22.67;;;12.80;;
40433;SDS011;26146;51.114;5.654;2023-04-29T10:06:34;22.45;;;12.52;;
40433;SDS011;26146;51.114;5.654;2023-04-29T10:10:38;25.65;;;13.15;;
40433;SDS011;26146;51.114;5.654;2023-04-29T10:15:02;24.15;;;12.93;;
40433;SDS011;26146;51.114;5.654;2023-04-29T10:19:38;25.50;;;13.15;;
40433;SDS011;26146;51.114;5.654;2023-04-29T10:23:43;24.00;;;12.38;;
40433;SDS011;26146;51.114;5.654;2023-04-29T10:27:45;24.55;;;12.55;;
40433;SDS011;26146;51.114;5.654;2023-04-29T10:31:48;25.38;;;13.32;;
40433;SDS011;26146;51.114;5.654;2023-04-29T10:35:50;22.42;;;12.80;;
40433;SDS011;26146;51.114;5.654;2023-04-29T10:44:13;24.48;;;13.10;;
40433;SDS011;26146;51.114;5.654;2023-04-29T10:48:14;22.65;;;12.38;;
40433;SDS011;26146;51.114;5.654;2023-04-29T10:52:15;24.60;;;13.35;;
40433;SDS011;26146;51.114;5.654;2023-04-29T10:56:16;23.10;;;13.05;;
40433;SDS011;26146;51.114;5.654;2023-04-29T11:00:28;21.65;;;12.50;;
40433;SDS011;26146;51.114;5.654;2023-04-29T11:04:31;26.40;;;13.30;;
40433;SDS011;26146;51.114;5.654;2023-04-29T11:08:32;23.15;;;12.55;;
40433;SDS011;26146;51.114;5.654;2023-04-29T11:12:39;21.15;;;11.50;;
40433;SDS011;26146;51.114;5.654;2023-04-29T11:16:47;22.77;;;11.57;;
40433;SDS011;26146;51.114;5.654;2023-04-29T11:25:05;21.85;;;11.30;;
40433;SDS011;26146;51.114;5.654;2023-04-29T11:29:07;20.20;;;11.50;;
40433;SDS011;26146;51.114;5.654;2023-04-29T11:33:11;23.35;;;11.50;;
40433;SDS011;26146;51.114;5.654;2023-04-29T11:37:18;19.88;;;11.55;;
40433;SDS011;26146;51.114;5.654;2023-04-29T11:41:23;20.10;;;11.38;;
40433;SDS011;26146;51.114;5.654;2023-04-29T11:45:25;20.55;;;11.70;;
40433;SDS011;26146;51.114;5.654;2023-04-29T11:49:31;18.55;;;10.60;;
40433;SDS011;26146;51.114;5.654;2023-04-29T11:53:37;19.85;;;11.55;;
40433;SDS011;26146;51.114;5.654;2023-04-29T11:57:38;22.10;;;11.40;;
40433;SDS011;26146;51.114;5.654;2023-04-29T12:01:40;20.33;;;11.23;;
40433;SDS011;26146;51.114;5.654;2023-04-29T12:05:52;20.02;;;10.38;;
40433;SDS011;26146;51.114;5.654;2023-04-29T12:09:54;17.88;;;10.57;;
40433;SDS011;26146;51.114;5.654;2023-04-29T12:13:59;18.48;;;10.88;;
40433;SDS011;26146;51.114;5.654;2023-04-29T12:18:05;20.33;;;11.00;;
40433;SDS011;26146;51.114;5.654;2023-04-29T12:22:07;18.52;;;10.23;;
40433;SDS011;26146;51.114;5.654;2023-04-29T12:26:09;17.48;;;10.30;;
40433;SDS011;26146;51.114;5.654;2023-04-29T12:30:10;16.90;;;10.18;;
40433;SDS011;26146;51.114;5.654;2023-04-29T12:34:11;16.75;;;10.05;;
40433;SDS011;26146;51.114;5.654;2023-04-29T12:38:14;16.27;;;9.35;;
40433;SDS011;26146;51.114;5.654;2023-04-29T12:42:16;18.52;;;9.10;;
40433;SDS011;26146;51.114;5.654;2023-04-29T12:46:17;17.95;;;9.52;;
40433;SDS011;26146;51.114;5.654;2023-04-29T12:50:26;20.10;;;10.00;;
40433;SDS011;26146;51.114;5.654;2023-04-29T12:54:32;18.00;;;9.88;;
40433;SDS011;26146;51.114;5.654;2023-04-29T12:58:37;19.77;;;9.70;;
40433;SDS011;26146;51.114;5.654;2023-04-29T13:02:38;16.02;;;8.95;;
40433;SDS011;26146;51.114;5.654;2023-04-29T13:06:39;16.60;;;9.30;;
40433;SDS011;26146;51.114;5.654;2023-04-29T13:10:41;15.98;;;8.65;;
40433;SDS011;26146;51.114;5.654;2023-04-29T13:14:42;14.70;;;8.05;;
40433;SDS011;26146;51.114;5.654;2023-04-29T13:18:43;15.45;;;8.88;;
40433;SDS011;26146;51.114;5.654;2023-04-29T13:22:44;17.45;;;8.93;;
40433;SDS011;26146;51.114;5.654;2023-04-29T13:26:45;17.88;;;8.73;;
40433;SDS011;26146;51.114;5.654;2023-04-29T13:30:47;15.40;;;8.32;;
40433;SDS011;26146;51.114;5.654;2023-04-29T13:34:49;15.20;;;8.57;;
40433;SDS011;26146;51.114;5.654;2023-04-29T13:38:51;18.27;;;8.60;;
40433;SDS011;26146;51.114;5.654;2023-04-29T13:42:52;17.20;;;8.95;;
40433;SDS011;26146;51.114;5.654;2023-04-29T13:46:53;16.15;;;8.65;;
40433;SDS011;26146;51.114;5.654;2023-04-29T13:50:54;16.67;;;9.20;;
40433;SDS011;26146;51.114;5.654;2023-04-29T13:54:55;17.58;;;9.18;;
40433;SDS011;26146;51.114;5.654;2023-04-29T13:58:56;17.08;;;8.07;;
40433;SDS011;26146;51.114;5.654;2023-04-29T14:02:57;15.85;;;8.20;;
40433;SDS011;26146;51.114;5.654;2023-04-29T14:06:58;15.57;;;8.05;;
40433;SDS011;26146;51.114;5.654;2023-04-29T14:10:59;15.60;;;7.90;;
40433;SDS011;26146;51.114;5.654;2023-04-29T14:15:01;15.80;;;8.32;;
40433;SDS011;26146;51.114;5.654;2023-04-29T14:19:02;15.82;;;8.27;;
40433;SDS011;26146;51.114;5.654;2023-04-29T14:23:03;14.43;;;7.63;;
40433;SDS011;26146;51.114;5.654;2023-04-29T14:27:05;15.73;;;7.88;;
40433;SDS011;26146;51.114;5.654;2023-04-29T14:31:06;17.77;;;8.50;;
40433;SDS011;26146;51.114;5.654;2023-04-29T14:35:07;14.30;;;7.47;;
40433;SDS011;26146;51.114;5.654;2023-04-29T14:39:09;13.38;;;7.38;;
40433;SDS011;26146;51.114;5.654;2023-04-29T14:43:11;14.93;;;7.45;;
40433;SDS011;26146;51.114;5.654;2023-04-29T14:47:12;15.40;;;7.45;;
40433;SDS011;26146;51.114;5.654;2023-04-29T14:51:13;15.45;;;7.90;;
40433;SDS011;26146;51.114;5.654;2023-04-29T14:55:14;14.02;;;7.30;;
40433;SDS011;26146;51.114;5.654;2023-04-29T14:59:16;12.07;;;6.57;;
40433;SDS011;26146;51.114;5.654;2023-04-29T15:03:17;12.35;;;6.57;;
40433;SDS011;26146;51.114;5.654;2023-04-29T15:07:18;11.95;;;6.03;;
40433;SDS011;26146;51.114;5.654;2023-04-29T15:11:19;13.07;;;6.38;;
40433;SDS011;26146;51.114;5.654;2023-04-29T15:15:21;12.32;;;6.32;;
40433;SDS011;26146;51.114;5.654;2023-04-29T15:19:22;11.93;;;6.35;;
40433;SDS011;26146;51.114;5.654;2023-04-29T15:23:25;15.52;;;7.47;;
40433;SDS011;26146;51.114;5.654;2023-04-29T15:27:26;12.63;;;6.45;;
40433;SDS011;26146;51.114;5.654;2023-04-29T15:31:28;12.18;;;6.50;;
40433;SDS011;26146;51.114;5.654;2023-04-29T15:35:29;13.85;;;7.15;;
40433;SDS011;26146;51.114;5.654;2023-04-29T15:39:30;12.73;;;6.97;;
40433;SDS011;26146;51.114;5.654;2023-04-29T15:43:31;13.80;;;7.20;;
40433;SDS011;26146;51.114;5.654;2023-04-29T15:47:33;12.27;;;6.70;;
40433;SDS011;26146;51.114;5.654;2023-04-29T15:51:34;12.05;;;6.07;;
40433;SDS011;26146;51.114;5.654;2023-04-29T15:55:35;13.82;;;7.20;;
40433;SDS011;26146;51.114;5.654;2023-04-29T15:59:36;11.65;;;5.90;;
40433;SDS011;26146;51.114;5.654;2023-04-29T16:03:37;11.30;;;5.32;;
40433;SDS011;26146;51.114;5.654;2023-04-29T16:07:38;10.93;;;4.97;;
40433;SDS011;26146;51.114;5.654;2023-04-29T16:11:40;10.18;;;4.97;;
40433;SDS011;26146;51.114;5.654;2023-04-29T16:15:41;9.45;;;4.82;;
40433;SDS011;26146;51.114;5.654;2023-04-29T16:19:42;10.18;;;5.03;;
40433;SDS011;26146;51.114;5.654;2023-04-29T16:23:43;10.65;;;5.22;;
40433;SDS011;26146;51.114;5.654;2023-04-29T16:27:45;12.27;;;5.60;;
40433;SDS011;26146;51.114;5.654;2023-04-29T16:31:46;11.15;;;5.90;;
40433;SDS011;26146;51.114;5.654;2023-04-29T16:35:47;10.82;;;5.30;;
40433;SDS011;26146;51.114;5.654;2023-04-29T16:39:48;9.90;;;4.90;;
40433;SDS011;26146;51.114;5.654;2023-04-29T16:43:50;10.35;;;5.07;;
40433;SDS011;26146;51.114;5.654;2023-04-29T16:47:52;12.57;;;5.90;;
40433;SDS011;26146;51.114;5.654;2023-04-29T16:51:53;11.90;;;5.93;;
40433;SDS011;26146;51.114;5.654;2023-04-29T16:55:55;11.65;;;5.68;;
40433;SDS011;26146;51.114;5.654;2023-04-29T16:59:56;11.75;;;5.35;;
40433;SDS011;26146;51.114;5.654;2023-04-29T17:03:57;11.15;;;5.15;;
40433;SDS011;26146;51.114;5.654;2023-04-29T17:07:58;11.40;;;5.22;;
40433;SDS011;26146;51.114;5.654;2023-04-29T17:11:59;11.02;;;5.60;;
40433;SDS011;26146;51.114;5.654;2023-04-29T17:16:03;11.82;;;5.45;;
40433;SDS011;26146;51.114;5.654;2023-04-29T17:20:05;11.48;;;5.97;;
40433;SDS011;26146;51.114;5.654;2023-04-29T17:24:06;11.88;;;5.97;;
40433;SDS011;26146;51.114;5.654;2023-04-29T17:28:07;12.02;;;5.90;;
40433;SDS011;26146;51.114;5.654;2023-04-29T17:32:08;11.85;;;5.47;;
40433;SDS011;26146;51.114;5.654;2023-04-29T17:36:11;10.90;;;5.60;;
40433;SDS011;26146;51.114;5.654;2023-04-29T17:40:12;11.05;;;6.18;;
40433;SDS011;26146;51.114;5.654;2023-04-29T17:44:13;11.75;;;5.82;;
40433;SDS011;26146;51.114;5.654;2023-04-29T17:48:14;12.40;;;5.70;;
40433;SDS011;26146;51.114;5.654;2023-04-29T17:52:17;13.98;;;5.80;;
40433;SDS011;26146;51.114;5.654;2023-04-29T17:56:20;12.20;;;6.07;;
40433;SDS011;26146;51.114;5.654;2023-04-29T18:00:21;14.13;;;6.20;;
40433;SDS011;26146;51.114;5.654;2023-04-29T18:04:23;12.27;;;6.03;;
40433;SDS011;26146;51.114;5.654;2023-04-29T18:08:24;12.25;;;6.55;;
40433;SDS011;26146;51.114;5.654;2023-04-29T18:12:25;16.77;;;7.88;;
40433;SDS011;26146;51.114;5.654;2023-04-29T18:16:26;14.02;;;6.60;;
40433;SDS011;26146;51.114;5.654;2023-04-29T18:20:27;13.27;;;6.47;;
40433;SDS011;26146;51.114;5.654;2023-04-29T18:24:29;15.90;;;7.03;;
40433;SDS011;26146;51.114;5.654;2023-04-29T18:28:30;15.13;;;7.07;;
40433;SDS011;26146;51.114;5.654;2023-04-29T18:32:31;14.65;;;6.95;;
40433;SDS011;26146;51.114;5.654;2023-04-29T18:36:32;14.10;;;7.03;;
40433;SDS011;26146;51.114;5.654;2023-04-29T18:40:33;14.93;;;6.97;;
40433;SDS011;26146;51.114;5.654;2023-04-29T18:44:35;23.58;;;12.02;;
40433;SDS011;26146;51.114;5.654;2023-04-29T18:48:36;53.95;;;27.70;;
40433;SDS011;26146;51.114;5.654;2023-04-29T18:52:40;34.45;;;18.48;;
40433;SDS011;26146;51.114;5.654;2023-04-29T18:56:44;23.25;;;10.00;;
40433;SDS011;26146;51.114;5.654;2023-04-29T19:00:47;17.73;;;8.27;;
40433;SDS011;26146;51.114;5.654;2023-04-29T19:04:48;15.43;;;8.82;;
40433;SDS011;26146;51.114;5.654;2023-04-29T19:08:49;16.60;;;8.10;;
40433;SDS011;26146;51.114;5.654;2023-04-29T19:12:51;12.55;;;6.32;;
40433;SDS011;26146;51.114;5.654;2023-04-29T19:16:52;10.98;;;5.70;;
40433;SDS011;26146;51.114;5.654;2023-04-29T19:20:54;11.27;;;5.30;;
40433;SDS011;26146;51.114;5.654;2023-04-29T19:24:55;13.38;;;6.13;;
40433;SDS011;26146;51.114;5.654;2023-04-29T19:28:57;11.75;;;5.85;;
40433;SDS011;26146;51.114;5.654;2023-04-29T19:32:59;13.73;;;6.20;;
40433;SDS011;26146;51.114;5.654;2023-04-29T19:37:00;13.00;;;6.38;;
40433;SDS011;26146;51.114;5.654;2023-04-29T19:41:01;14.00;;;7.05;;
40433;SDS011;26146;51.114;5.654;2023-04-29T19:45:03;12.23;;;6.30;;
40433;SDS011;26146;51.114;5.654;2023-04-29T19:49:06;11.37;;;6.03;;
40433;SDS011;26146;51.114;5.654;2023-04-29T19:53:08;12.43;;;5.97;;
40433;SDS011;26146;51.114;5.654;2023-04-29T19:57:10;13.35;;;6.10;;
40433;SDS011;26146;51.114;5.654;2023-04-29T20:01:11;11.45;;;6.20;;
40433;SDS011;26146;51.114;5.654;2023-04-29T20:05:12;12.05;;;5.93;;
40433;SDS011;26146;51.114;5.654;2023-04-29T20:09:14;13.95;;;6.13;;
40433;SDS011;26146;51.114;5.654;2023-04-29T20:13:15;12.13;;;5.97;;
40433;SDS011;26146;51.114;5.654;2023-04-29T20:17:16;11.60;;;5.72;;
40433;SDS011;26146;51.114;5.654;2023-04-29T20:21:18;12.88;;;5.60;;
40433;SDS011;26146;51.114;5.654;2023-04-29T20:25:19;13.35;;;5.97;;
40433;SDS011;26146;51.114;5.654;2023-04-29T20:29:21;14.02;;;6.05;;
40433;SDS011;26146;51.114;5.654;2023-04-29T20:33:22;13.25;;;6.50;;
40433;SDS011;26146;51.114;5.654;2023-04-29T20:37:23;13.27;;;6.32;;
40433;SDS011;26146;51.114;5.654;2023-04-29T20:41:25;12.63;;;6.00;;
40433;SDS011;26146;51.114;5.654;2023-04-29T20:45:28;13.07;;;6.82;;
40433;SDS011;26146;51.114;5.654;2023-04-29T20:49:29;14.23;;;6.93;;
40433;SDS011;26146;51.114;5.654;2023-04-29T20:53:30;15.18;;;8.35;;
40433;SDS011;26146;51.114;5.654;2023-04-29T20:57:31;18.73;;;10.00;;
40433;SDS011;26146;51.114;5.654;2023-04-29T21:01:33;18.17;;;10.85;;
40433;SDS011;26146;51.114;5.654;2023-04-29T21:05:34;21.98;;;12.55;;
40433;SDS011;26146;51.114;5.654;2023-04-29T21:09:35;17.35;;;10.10;;
40433;SDS011;26146;51.114;5.654;2023-04-29T21:13:36;17.55;;;9.10;;
40433;SDS011;26146;51.114;5.654;2023-04-29T21:17:37;16.45;;;8.98;;
40433;SDS011;26146;51.114;5.654;2023-04-29T21:21:39;17.38;;;8.32;;
40433;SDS011;26146;51.114;5.654;2023-04-29T21:25:40;14.48;;;7.95;;
40433;SDS011;26146;51.114;5.654;2023-04-29T21:29:41;13.50;;;7.40;;
40433;SDS011;26146;51.114;5.654;2023-04-29T21:33:42;13.30;;;6.60;;
40433;SDS011;26146;51.114;5.654;2023-04-29T21:37:43;14.25;;;6.68;;
40433;SDS011;26146;51.114;5.654;2023-04-29T21:41:45;13.85;;;6.53;;
40433;SDS011;26146;51.114;5.654;2023-04-29T21:45:46;13.82;;;6.10;;
40433;SDS011;26146;51.114;5.654;2023-04-29T21:49:47;14.30;;;6.28;;
40433;SDS011;26146;51.114;5.654;2023-04-29T21:53:49;11.25;;;6.13;;
40433;SDS011;26146;51.114;5.654;2023-04-29T21:57:51;13.10;;;6.55;;
40433;SDS011;26146;51.114;5.654;2023-04-29T22:01:52;14.50;;;6.63;;
40433;SDS011;26146;51.114;5.654;2023-04-29T22:05:59;16.48;;;7.25;;
40433;SDS011;26146;51.114;5.654;2023-04-29T22:10:01;14.50;;;6.88;;
40433;SDS011;26146;51.114;5.654;2023-04-29T22:14:02;12.50;;;6.40;;
40433;SDS011;26146;51.114;5.654;2023-04-29T22:18:03;11.50;;;6.05;;
40433;SDS011;26146;51.114;5.654;2023-04-29T22:22:04;12.25;;;6.30;;
40433;SDS011;26146;51.114;5.654;2023-04-29T22:26:06;13.27;;;6.22;;
40433;SDS011;26146;51.114;5.654;2023-04-29T22:30:07;14.80;;;7.00;;
40433;SDS011;26146;51.114;5.654;2023-04-29T22:34:09;15.45;;;7.38;;
40433;SDS011;26146;51.114;5.654;2023-04-29T22:38:10;13.00;;;5.90;;
40433;SDS011;26146;51.114;5.654;2023-04-29T22:42:12;13.23;;;5.53;;
40433;SDS011;26146;51.114;5.654;2023-04-29T22:46:13;13.10;;;5.33;;
40433;SDS011;26146;51.114;5.654;2023-04-29T22:50:14;10.40;;;5.40;;
40433;SDS011;26146;51.114;5.654;2023-04-29T22:54:15;12.13;;;5.67;;
40433;SDS011;26146;51.114;5.654;2023-04-29T22:58:17;10.80;;;4.93;;
40433;SDS011;26146;51.114;5.654;2023-04-29T23:02:18;11.57;;;4.90;;
40433;SDS011;26146;51.114;5.654;2023-04-29T23:06:20;10.80;;;5.23;;
40433;SDS011;26146;51.114;5.654;2023-04-29T23:10:21;13.50;;;5.10;;
40433;SDS011;26146;51.114;5.654;2023-04-29T23:14:22;12.40;;;4.90;;
40433;SDS011;26146;51.114;5.654;2023-04-29T23:18:23;12.00;;;5.10;;
40433;SDS011;26146;51.114;5.654;2023-04-29T23:22:25;12.67;;;4.97;;
40433;SDS011;26146;51.114;5.654;2023-04-29T23:26:26;10.57;;;5.13;;
40433;SDS011;26146;51.114;5.654;2023-04-29T23:30:27;11.07;;;5.07;;
40433;SDS011;26146;51.114;5.654;2023-04-29T23:34:28;12.50;;;5.00;;
40433;SDS011;26146;51.114;5.654;2023-04-29T23:38:30;13.87;;;5.57;;
40433;SDS011;26146;51.114;5.654;2023-04-29T23:42:31;13.00;;;5.60;;
40433;SDS011;26146;51.114;5.654;2023-04-29T23:46:33;12.90;;;5.90;;
40433;SDS011;26146;51.114;5.654;2023-04-29T23:50:34;11.27;;;5.50;;
40433;SDS011;26146;51.114;5.654;2023-04-29T23:54:35;12.03;;;5.77;;
40433;SDS011;26146;51.114;5.654;2023-04-29T23:58:37;14.87;;;5.87;;
